DFEC weather

Komin-Yanga Airport
Komin-Yanga, Koulpulogo, Burkina Faso

Public forecast

Using degrees Celsius for public forecast. Weather courtesy of forecast.io.

Closest aviation weather report (METAR) to Komin-Yanga Airport

Report is more than 6 hours old.

Closest report is Fada N'gourma Airport, 23.2 nm (43.0 km) NNE. Retrieved 2009/09/21 17:00 UTC (10 years ago):

DFEF 211700Z 00000KT 9999 FEW0226 TCU BKN260 30/25

Closest aviation forecast (TAF) to Komin-Yanga Airport

Closest forecast is Ouagadougou Airport, 105.2 nm (194.8 km) WNW. Retrieved 2020/01/29 06:00 UTC (2 hours ago):

TAF DFFD 290500Z 2906/3012 04010KT 4000 DU NSC TEMPO 2906/2910 2500 DU BECMG 2920/2922 6000 NSW